Adell, WI

3:34 AM CDT on May 22, 2019 (GMT -0500)
Waldo | | Change Station
Active Advisory: Special Statement

Elev 817 ft 43.64 °N, 87.92 °W | Updated 1 minute ago

Rain
Rain
44.8 °F
Feels Like 41 °F
N
6.9
Wind Variable Wind from SE
Gusts 8.1 mph

Today
High -- | Low -- °F
--% Chance of Precip.
Yesterday
High -- | Low -- °F
Precip. -- in
Pressure 30.02 in
Visibility 4.0 miles
Clouds Overcast 6000 ft
Windchill 41 °F
Dew Point 43 °F
Humidity 93%
Rainfall 0.20 in
Snow Depth Not available.
5:20 AM 8:17 PM
Waning Gibbous, 87% visible
METAR KSBM 220653Z AUTO VRB06KT 4SM +RA OVC060 11/06 A3001 RMK AO2 LTG DSNT S RAB38 SLP164 P0005 T01060061
Pressure 30.02 in
Visibility 4.0 miles
Clouds Overcast 6000 ft
Windchill 41 °F
Dew Point 43 °F
Humidity 93%
Rainfall 0.20 in
Snow Depth Not available.
5:20 AM 8:17 PM
Waning Gibbous, 87% visible
METAR KSBM 220653Z AUTO VRB06KT 4SM +RA OVC060 11/06 A3001 RMK AO2 LTG DSNT S RAB38 SLP164 P0005 T01060061

Get Your Daily Forecast Email!

Thanks for signing up!

Be on the lookout for a verification email in your inbox.

You'll start receiving severe weather alerts in your inbox..

×

10-Day Weather Forecast

Almanac

Astronomy

May. 22, 2019 Rise Set
Actual Time
Civil Twilight
Nautical Twilight
Astronomical Twilight
Moon
Length of Visible Light
Length of Day
Tomorrow will be .
, % of the Moon is Illuminated

Today's Extremes

State Highs State Lows

Community

WunderPhotos

Category 6

Welcome to Category 6. This is the collective home for Weather Underground's featured writeups by Dr. Jeff Masters (right), Bob Henson (left), Chris Burt, and other regular contributors.

Nearby

Air Quality

  Air Quality AQ Index Pollutant
Not available.

Snow Depth

Station Depth Elevation

Earthquake Activity

City Distance Mag. Time & Date
Minimum magnitude displayed is 2.5.

Coastal Water Temperatures

Place Temperature

Stations

Nearby Weather Stations

Station Location Temp. Windchill Dew Point Humidity Wind Precip. Elev Updated Type
                   

Watches & Warnings

Special Statement
Issued: 2:10 AM CDT May. 22, 2019 – National Weather Service

... Very gusty winds expected as rain ends...

Surface observations across parts of northern Illinois and in
southwest Wisconsin have shown a brief period of gusty winds over
the past hour behind the rain. Locations can expect wind gusts of
40 to 50 mph as showers come to an end over the next several hours.